Time;durP1;ratioP1;P1;durP2;ratioP2;P2;SDS_P1;SDS_P2;PMS_P1;PMS_P2;Temp;Humidity;BMP_temperature;BMP_pressure;BME280_temperature;BME280_humidity;BME280_pressure;Samples;Min_cycle;Max_cycle;Signal;HPM_P1;HPM_P2
2021/12/12 00:01:02;;;;;;;7.62;5.15;;;;;;;;;;357857;150;857267;-60
2021/12/12 00:02:09;;;;;;;9.23;6.11;;;;;;;;;;358696;147;857088;-59
2021/12/12 00:03:20;;;;;;;9.63;6.83;;;;;;;;;;356707;147;856629;-59
2021/12/12 00:04:15;;;;;;;10.03;7.02;;;;;;;;;;357116;147;856365;-59
2021/12/12 00:05:18;;;;;;;10.16;6.95;;;;;;;;;;354826;148;857218;-60
2021/12/12 00:06:22;;;;;;;9.97;7.04;;;;;;;;;;355923;149;858125;-59
2021/12/12 00:07:25;;;;;;;7.59;6.29;;;;;;;;;;353722;149;859368;-60
2021/12/12 00:08:26;;;;;;;9.30;7.05;;;;;;;;;;353401;151;865875;-59
2021/12/12 00:09:33;;;;;;;10.23;6.89;;;;;;;;;;355877;150;858214;-60
2021/12/12 00:10:35;;;;;;;8.91;6.35;;;;;;;;;;354542;149;857642;-60
2021/12/12 00:11:37;;;;;;;8.09;5.83;;;;;;;;;;348589;151;857194;-60
2021/12/12 00:24:19;;;;;;;9.38;6.29;;;;;;;7.31;75.44;100327.52;370475;142;881355;-59
2021/12/12 00:25:20;;;;;;;6.42;4.94;;;;;;;7.23;75.36;100335.98;364445;147;859424;-59
2021/12/12 00:26:23;;;;;;;5.76;4.09;;;;;;;7.25;75.26;100334.30;364127;147;856758;-59
2021/12/12 00:27:25;;;;;;;5.08;3.93;;;;;;;7.27;75.17;100345.48;362578;146;865467;-58
2021/12/12 00:28:27;;;;;;;7.10;3.89;;;;;;;7.31;75.10;100350.70;362042;147;858556;-58
2021/12/12 00:29:29;;;;;;;4.59;3.69;;;;;;;7.39;75.00;100349.93;361279;147;865598;-58
2021/12/12 00:30:31;;;;;;;6.61;4.09;;;;;;;7.49;74.87;100346.61;363225;147;857583;-58
2021/12/12 00:31:33;;;;;;;5.90;4.51;;;;;;;;;;361494;146;858964;-59
2021/12/12 00:32:36;;;;;;;7.23;4.56;;;;;;;;;;359635;147;866520;-59
2021/12/12 00:33:41;;;;;;;6.42;4.88;;;;;;;;;;359312;147;865732;-59
2021/12/12 00:34:44;;;;;;;9.33;5.75;;;;;;;;;;363503;146;857214;-59
2021/12/12 00:35:46;;;;;;;11.06;6.05;;;;;;;;;;361690;147;858608;-60
2021/12/12 00:36:48;;;;;;;12.19;7.57;;;;;;;;;;359442;147;857361;-59
2021/12/12 00:37:51;;;;;;;11.23;5.83;;;;;;;;;;362313;147;857811;-59
2021/12/12 00:38:54;;;;;;;10.30;7.10;;;;;;;;;;361040;147;863818;-59
2021/12/12 00:39:57;;;;;;;15.86;9.74;;;;;;;;;;360489;147;866747;-59
2021/12/12 00:40:59;;;;;;;16.33;8.71;;;;;;;;;;356458;149;858952;-59
2021/12/12 00:42:08;;;;;;;10.02;7.36;;;;;;;;;;354401;149;857188;-58
2021/12/12 00:43:14;;;;;;;9.21;6.87;;;;;;;;;;351226;150;857712;-59
2021/12/12 00:44:16;;;;;;;10.98;7.44;;;;;;;;;;351158;150;857314;-59
2021/12/12 00:45:18;;;;;;;12.01;8.34;;;;;;;;;;356602;147;858647;-58
2021/12/12 00:46:19;;;;;;;13.96;8.64;;;;;;;;;;356199;149;857161;-60
2021/12/12 00:47:21;;;;;;;11.71;7.91;;;;;;;;;;355131;148;864936;-60
2021/12/12 00:48:23;;;;;;;10.11;7.29;;;;;;;;;;354711;148;857850;-59
2021/12/12 00:49:25;;;;;;;12.83;7.11;;;;;;;;;;357364;150;866389;-59
2021/12/12 00:50:28;;;;;;;8.68;6.79;;;;;;;;;;356990;148;858094;-60
2021/12/12 00:51:32;;;;;;;12.84;7.81;;;;;;;;;;355072;147;857414;-59
2021/12/12 00:52:34;;;;;;;15.66;10.44;;;;;;;;;;356721;150;859578;-59
2021/12/12 00:53:35;;;;;;;18.98;10.06;;;;;;;;;;354690;149;860365;-59
2021/12/12 00:54:37;;;;;;;15.88;10.09;;;;;;;;;;354904;148;866555;-59
2021/12/12 00:55:39;;;;;;;15.13;9.11;;;;;;;;;;356860;148;866270;-58
2021/12/12 00:56:41;;;;;;;15.23;9.70;;;;;;;;;;356954;150;865764;-57
2021/12/12 00:57:43;;;;;;;18.21;10.39;;;;;;;;;;356922;150;857193;-59
2021/12/12 00:58:44;;;;;;;16.49;10.61;;;;;;;;;;355695;147;865583;-59
2021/12/12 00:59:47;;;;;;;18.85;11.07;;;;;;;;;;357075;149;865800;-59
2021/12/12 01:00:53;;;;;;;19.73;10.66;;;;;;;;;;356622;150;865593;-59
2021/12/12 01:01:54;;;;;;;14.66;9.85;;;;;;;;;;356186;148;857419;-60
2021/12/12 01:02:56;;;;;;;11.59;9.00;;;;;;;;;;356822;147;858794;-60
2021/12/12 01:04:02;;;;;;;12.61;9.14;;;;;;;;;;357948;149;864962;-59
2021/12/12 01:05:04;;;;;;;15.04;9.70;;;;;;;;;;356009;148;866678;-59
2021/12/12 01:06:07;;;;;;;13.76;9.97;;;;;;;;;;357062;147;857314;-60
2021/12/12 01:07:12;;;;;;;15.78;8.92;;;;;;;;;;355356;148;860183;-60
2021/12/12 01:08:14;;;;;;;13.19;8.61;;;;;;;;;;356701;150;856685;-59
2021/12/12 01:09:19;;;;;;;14.50;10.31;;;;;;;;;;355718;147;856673;-59
2021/12/12 01:10:26;;;;;;;16.43;10.36;;;;;;;;;;358110;148;860361;-59
2021/12/12 01:11:32;;;;;;;20.06;12.16;;;;;;;;;;355093;150;859247;-59
2021/12/12 01:12:34;;;;;;;27.06;15.29;;;;;;;;;;355114;148;857659;-59
2021/12/12 01:13:36;;;;;;;24.89;15.03;;;;;;;;;;355772;149;857834;-59
2021/12/12 01:14:41;;;;;;;29.78;17.14;;;;;;;;;;355485;148;857241;-58
2021/12/12 01:15:53;;;;;;;23.93;13.05;;;;;;;;;;355491;147;859237;-61
2021/12/12 01:17:03;;;;;;;19.77;12.62;;;;;;;;;;355935;149;857316;-59
2021/12/12 01:18:06;;;;;;;23.22;13.42;;;;;;;;;;355077;148;858099;-60
2021/12/12 01:19:09;;;;;;;20.83;10.98;;;;;;;;;;355494;147;857892;-59
2021/12/12 01:20:13;;;;;;;17.14;10.98;;;;;;;;;;355641;148;857462;-59
2021/12/12 01:21:16;;;;;;;16.34;11.08;;;;;;;;;;355488;147;865999;-61
2021/12/12 01:22:24;;;;;;;25.19;14.41;;;;;;;;;;358088;147;858414;-59
2021/12/12 01:23:26;;;;;;;20.09;12.11;;;;;;;;;;355751;147;858546;-60
2021/12/12 01:24:31;;;;;;;19.27;12.12;;;;;;;;;;355775;149;857377;-60
2021/12/12 01:25:34;;;;;;;15.41;10.16;;;;;;;;;;352766;151;857693;-60
2021/12/12 01:26:36;;;;;;;15.46;11.42;;;;;;;;;;352894;148;859613;-59
2021/12/12 01:27:37;;;;;;;13.60;9.51;;;;;;;;;;354651;150;858578;-59
2021/12/12 01:28:40;;;;;;;16.14;10.05;;;;;;;;;;354688;151;865010;-59
2021/12/12 01:29:41;;;;;;;14.98;10.40;;;;;;;;;;352110;150;857738;-59
2021/12/12 01:30:43;;;;;;;16.06;11.05;;;;;;;;;;352503;148;857275;-59
2021/12/12 01:31:48;;;;;;;15.29;10.60;;;;;;;;;;354963;149;857352;-61
2021/12/12 01:32:50;;;;;;;17.87;11.14;;;;;;;;;;350219;151;857215;-59
2021/12/12 01:33:58;;;;;;;15.93;10.88;;;;;;;;;;354912;148;857391;-59
2021/12/12 01:34:57;;;;;;;14.48;10.82;;;;;;;;;;354021;150;859191;-59
2021/12/12 01:36:00;;;;;;;20.39;11.74;;;;;;;;;;354706;151;857722;-59
2021/12/12 01:39:26;;;;;;;20.03;12.92;;;;;;;;;;350336;151;857446;-59
2021/12/12 01:40:28;;;;;;;17.60;12.73;;;;;;;;;;353404;149;865927;-59
2021/12/12 01:41:31;;;;;;;21.39;13.38;;;;;;;;;;354142;148;857314;-59
2021/12/12 01:42:35;;;;;;;21.79;13.14;;;;;;;;;;354177;151;859233;-60
2021/12/12 01:43:41;;;;;;;22.74;14.11;;;;;;;;;;353900;148;857285;-59
2021/12/12 01:44:47;;;;;;;20.96;13.33;;;;;;;;;;353651;149;857316;-59
2021/12/12 01:45:51;;;;;;;19.58;12.54;;;;;;;;;;355544;151;857581;-59
2021/12/12 01:46:54;;;;;;;21.67;14.07;;;;;;;;;;350756;150;859899;-59
2021/12/12 01:47:57;;;;;;;20.77;12.48;;;;;;;;;;352502;150;864756;-59
2021/12/12 01:49:10;;;;;;;22.24;13.62;;;;;;;;;;354024;150;858441;-59
2021/12/12 01:50:17;;;;;;;22.57;13.59;;;;;;;;;;354963;150;858978;-60
2021/12/12 01:51:18;;;;;;;19.78;13.04;;;;;;;;;;353305;149;857449;-58
2021/12/12 01:52:22;;;;;;;20.53;12.65;;;;;;;;;;354760;150;857644;-59
2021/12/12 01:53:26;;;;;;;20.39;12.54;;;;;;;;;;355637;151;864763;-59
2021/12/12 01:54:30;;;;;;;21.47;12.76;;;;;;;;;;353279;150;859409;-58
2021/12/12 01:55:36;;;;;;;24.40;13.29;;;;;;;;;;354109;151;866700;-59
2021/12/12 01:56:42;;;;;;;25.03;13.11;;;;;;;;;;352254;151;857204;-59
2021/12/12 01:57:43;;;;;;;19.56;11.61;;;;;;;;;;353008;149;858790;-59
2021/12/12 01:58:45;;;;;;;18.87;13.06;;;;;;;;;;353247;150;858860;-59
2021/12/12 01:59:47;;;;;;;16.03;10.74;;;;;;;;;;354952;150;864834;-59
2021/12/12 02:00:50;;;;;;;22.07;12.38;;;;;;;;;;354828;148;858528;-59
2021/12/12 02:01:57;;;;;;;26.37;15.06;;;;;;;;;;351667;149;865554;-61
2021/12/12 02:02:59;;;;;;;37.33;16.83;;;;;;;;;;353349;151;858789;-62
2021/12/12 02:04:02;;;;;;;45.51;19.77;;;;;;;;;;355967;151;859690;-58
2021/12/12 02:05:06;;;;;;;27.98;14.21;;;;;;;;;;352613;150;864968;-58
2021/12/12 02:06:08;;;;;;;30.61;15.61;;;;;;;;;;351957;150;860265;-60
2021/12/12 02:07:10;;;;;;;26.03;12.13;;;;;;;;;;354601;151;857381;-61
2021/12/12 02:08:13;;;;;;;29.55;15.51;;;;;;;;;;355887;149;857400;-60
2021/12/12 02:09:15;;;;;;;24.21;13.79;;;;;;;;;;352751;150;859561;-61
2021/12/12 02:10:18;;;;;;;20.98;11.67;;;;;;;;;;354079;148;866644;-58
2021/12/12 02:11:22;;;;;;;28.99;13.65;;;;;;;;;;352140;150;859258;-59
2021/12/12 02:12:23;;;;;;;25.81;11.24;;;;;;;;;;351794;150;865065;-59
2021/12/12 02:13:25;;;;;;;30.72;15.31;;;;;;;;;;353112;150;857178;-59
2021/12/12 02:14:28;;;;;;;24.30;13.02;;;;;;;;;;352387;150;859636;-59
2021/12/12 02:15:32;;;;;;;24.35;13.15;;;;;;;;;;351687;150;859428;-59
2021/12/12 02:16:34;;;;;;;23.01;13.62;;;;;;;;;;353018;150;857383;-61
2021/12/12 02:17:40;;;;;;;20.34;10.79;;;;;;;;;;352774;149;866032;-59
2021/12/12 02:18:41;;;;;;;28.16;13.47;;;;;;;;;;352174;151;864500;-59
2021/12/12 02:20:03;;;;;;;21.43;12.72;;;;;;;;;;352752;150;858053;-59
2021/12/12 02:21:36;;;;;;;19.84;11.01;;;;;;;;;;351862;151;857396;-60
2021/12/12 02:22:25;;;;;;;22.54;12.46;;;;;;;;;;347617;149;865206;-60
2021/12/12 02:36:17;;;;;;;22.73;11.69;;;;;;;;;;352210;149;866783;-59
2021/12/12 02:37:18;;;;;;;21.74;12.59;;;;;;;;;;352238;150;857807;-59
2021/12/12 02:38:21;;;;;;;21.29;10.62;;;;;;;;;;353506;150;857197;-58
2021/12/12 02:39:23;;;;;;;36.68;17.12;;;;;;;;;;352736;148;864633;-57
2021/12/12 02:40:26;;;;;;;42.98;15.04;;;;;;;;;;353107;150;857897;-58
2021/12/12 02:41:28;;;;;;;32.63;13.79;;;;;;;;;;351622;150;857239;-59
2021/12/12 02:42:29;;;;;;;22.96;11.27;;;;;;;;;;356506;150;859884;-59
2021/12/12 02:43:32;;;;;;;31.91;13.61;;;;;;;;;;347603;153;863285;-59
2021/12/12 02:44:35;;;;;;;28.96;12.34;;;;;;;;;;347968;151;857754;-59
2021/12/12 02:45:36;;;;;;;18.82;10.22;;;;;;;;;;353503;151;864932;-59
2021/12/12 02:46:40;;;;;;;28.57;12.33;;;;;;;;;;354032;148;857144;-59
2021/12/12 02:47:43;;;;;;;21.14;10.81;;;;;;;;;;353795;150;857322;-59
2021/12/12 02:48:45;;;;;;;24.70;11.84;;;;;;;;;;351807;151;859517;-59
2021/12/12 02:50:53;;;;;;;30.98;13.82;;;;;;;;;;353847;149;859608;-59
2021/12/12 02:51:54;;;;;;;34.53;13.11;;;;;;;;;;351915;150;859388;-59
2021/12/12 02:52:58;;;;;;;33.11;13.56;;;;;;;;;;355769;151;866704;-59
2021/12/12 02:53:59;;;;;;;23.08;11.59;;;;;;;;;;353034;150;867013;-59
2021/12/12 02:55:03;;;;;;;26.14;11.93;;;;;;;;;;354681;150;858087;-59
2021/12/12 02:56:09;;;;;;;25.61;12.16;;;;;;;;;;354112;151;864734;-60
2021/12/12 02:57:11;;;;;;;25.97;11.91;;;;;;;;;;354242;150;858678;-59
2021/12/12 02:58:14;;;;;;;21.65;11.20;;;;;;;;;;353268;150;857248;-59
2021/12/12 02:59:17;;;;;;;18.73;10.59;;;;;;;;;;352749;149;857873;-59
2021/12/12 03:00:21;;;;;;;17.15;10.35;;;;;;;;;;353527;151;857179;-59
2021/12/12 03:01:36;;;;;;;28.54;12.60;;;;;;;;;;353337;149;865722;-59
2021/12/12 03:02:45;;;;;;;26.12;12.52;;;;;;;;;;353679;151;864933;-58
2021/12/12 03:03:42;;;;;;;18.73;11.03;;;;;;;;;;351985;150;858836;-58
2021/12/12 03:04:44;;;;;;;18.37;10.49;;;;;;;;;;351391;150;858773;-59
2021/12/12 03:05:46;;;;;;;29.60;13.64;;;;;;;;;;354760;150;858912;-59
2021/12/12 03:06:47;;;;;;;24.37;11.74;;;;;;;;;;353744;151;860505;-61
2021/12/12 03:07:49;;;;;;;17.86;11.14;;;;;;;;;;355105;149;857739;-62
2021/12/12 03:08:51;;;;;;;21.49;11.21;;;;;;;;;;353762;150;864505;-60
2021/12/12 03:09:55;;;;;;;29.03;13.81;;;;;;;;;;348036;151;859573;-59
2021/12/12 03:10:57;;;;;;;23.67;11.82;;;;;;;;;;342475;153;858231;-59
2021/12/12 03:12:00;;;;;;;23.12;11.25;;;;;;;;;;345426;153;857272;-59
2021/12/12 03:13:01;;;;;;;42.31;16.21;;;;;;;;;;340433;156;865920;-59
2021/12/12 03:14:03;;;;;;;28.83;11.92;;;;;;;;;;344714;155;857306;-60
2021/12/12 03:15:09;;;;;;;20.19;11.29;;;;;;;;;;341478;155;859537;-60
2021/12/12 03:16:11;;;;;;;24.34;11.58;;;;;;;;;;341554;155;858827;-60
2021/12/12 03:17:14;;;;;;;21.71;11.51;;;;;;;;;;343345;157;857336;-60
2021/12/12 03:18:17;;;;;;;22.07;11.74;;;;;;;;;;342423;155;864439;-56
2021/12/12 03:19:20;;;;;;;18.01;10.31;;;;;;;;;;339506;155;858402;-61
2021/12/12 03:20:24;;;;;;;21.61;10.87;;;;;;;;;;338066;157;857623;-61
2021/12/12 03:21:31;;;;;;;16.22;10.34;;;;;;;;;;342419;156;857286;-61
2021/12/12 03:22:33;;;;;;;14.95;9.91;;;;;;;;;;340979;155;857192;-60
2021/12/12 03:23:35;;;;;;;15.79;10.17;;;;;;;;;;341067;157;857970;-60
2021/12/12 03:24:36;;;;;;;17.37;10.49;;;;;;;;;;341110;157;866050;-60
2021/12/12 03:25:39;;;;;;;21.69;11.09;;;;;;;;;;345803;153;867114;-59
2021/12/12 03:26:41;;;;;;;27.44;12.36;;;;;;;;;;355187;147;864937;-59
2021/12/12 03:27:43;;;;;;;19.77;10.96;;;;;;;;;;355587;150;857142;-59
2021/12/12 03:28:45;;;;;;;19.10;10.94;;;;;;;;;;355985;148;857472;-60
2021/12/12 03:29:46;;;;;;;17.17;10.85;;;;;;;;;;355663;148;865196;-59
2021/12/12 03:30:49;;;;;;;20.34;12.06;;;;;;;;;;357144;148;857063;-59
2021/12/12 03:31:52;;;;;;;17.26;10.11;;;;;;;;;;355314;148;864779;-59
2021/12/12 03:32:54;;;;;;;13.57;9.59;;;;;;;;;;355172;148;859482;-61
2021/12/12 03:33:56;;;;;;;16.18;9.85;;;;;;;;;;358455;149;857342;-59
2021/12/12 03:34:58;;;;;;;13.71;10.16;;;;;;;;;;357336;147;864973;-59
2021/12/12 03:36:00;;;;;;;16.65;9.33;;;;;;;;;;357267;147;864906;-59
2021/12/12 03:37:02;;;;;;;16.30;10.05;;;;;;;;;;356023;149;857725;-59
2021/12/12 03:38:04;;;;;;;17.35;10.69;;;;;;;;;;358858;150;857306;-59
2021/12/12 03:39:14;;;;;;;19.55;11.54;;;;;;;;;;354667;148;859496;-59
2021/12/12 03:40:20;;;;;;;23.17;12.93;;;;;;;;;;355328;149;857089;-59
2021/12/12 03:41:24;;;;;;;16.28;9.68;;;;;;;;;;349239;150;857177;-59
2021/12/12 03:42:26;;;;;;;17.16;10.79;;;;;;;;;;357416;147;857192;-59
2021/12/12 03:43:27;;;;;;;21.81;11.79;;;;;;;;;;356203;148;857259;-58
2021/12/12 03:44:30;;;;;;;15.36;9.98;;;;;;;;;;356905;148;857178;-58
2021/12/12 03:45:31;;;;;;;20.53;10.45;;;;;;;;;;357928;148;865382;-59
2021/12/12 03:46:33;;;;;;;18.17;10.24;;;;;;;;;;355354;148;858889;-61
2021/12/12 03:47:37;;;;;;;16.19;10.96;;;;;;;;;;355235;148;857361;-59
2021/12/12 03:48:39;;;;;;;19.03;11.57;;;;;;;;;;355259;148;857398;-61
2021/12/12 03:49:41;;;;;;;16.38;10.58;;;;;;;;;;356966;148;859688;-60
2021/12/12 03:50:43;;;;;;;21.00;11.28;;;;;;;;;;357181;147;859191;-60
2021/12/12 03:51:45;;;;;;;20.73;10.85;;;;;;;;;;358618;147;866834;-61
2021/12/12 03:52:47;;;;;;;24.45;12.80;;;;;;;;;;358573;147;858919;-60
2021/12/12 03:53:48;;;;;;;23.41;13.16;;;;;;;;;;352113;150;859424;-59
2021/12/12 03:54:50;;;;;;;27.01;14.26;;;;;;;;;;351950;147;857313;-60
2021/12/12 03:55:52;;;;;;;20.33;11.27;;;;;;;;;;354140;150;857720;-60
2021/12/12 03:56:53;;;;;;;22.47;11.74;;;;;;;;;;357487;148;857263;-59
2021/12/12 03:57:55;;;;;;;24.49;13.15;;;;;;;;;;355998;149;865644;-59
2021/12/12 03:58:57;;;;;;;22.86;11.21;;;;;;;;;;354904;147;859374;-59
2021/12/12 03:59:58;;;;;;;21.98;11.48;;;;;;;;;;354573;147;857318;-60
2021/12/12 04:01:02;;;;;;;25.93;14.02;;;;;;;;;;355674;147;857315;-59
2021/12/12 04:02:04;;;;;;;21.39;12.65;;;;;;;;;;355244;148;864819;-58
2021/12/12 04:03:06;;;;;;;26.45;13.63;;;;;;;;;;356154;147;864811;-60
2021/12/12 04:04:09;;;;;;;23.92;12.06;;;;;;;;;;354819;148;865867;-59
2021/12/12 04:05:11;;;;;;;24.78;13.02;;;;;;;;;;355441;149;859137;-59
2021/12/12 04:06:14;;;;;;;24.29;14.11;;;;;;;;;;356658;147;858299;-58
2021/12/12 04:07:17;;;;;;;24.55;12.60;;;;;;;;;;353641;148;857258;-61
2021/12/12 04:08:21;;;;;;;19.88;10.55;;;;;;;;;;355959;148;859550;-61
2021/12/12 04:09:22;;;;;;;19.07;11.00;;;;;;;;;;356299;148;858444;-58
2021/12/12 04:10:24;;;;;;;19.55;10.34;;;;;;;;;;354906;148;857434;-59
2021/12/12 04:11:31;;;;;;;24.55;10.82;;;;;;;;;;356724;147;857327;-59
2021/12/12 04:12:32;;;;;;;55.78;12.44;;;;;;;;;;355400;147;859041;-60
2021/12/12 04:13:36;;;;;;;25.71;11.04;;;;;;;;;;357924;150;857750;-59
2021/12/12 04:14:37;;;;;;;32.04;12.41;;;;;;;;;;355997;148;865791;-59
2021/12/12 04:15:39;;;;;;;22.85;10.99;;;;;;;;;;353880;149;858589;-59
2021/12/12 04:16:42;;;;;;;21.56;10.91;;;;;;;;;;354501;150;864866;-59
2021/12/12 04:17:44;;;;;;;22.26;10.75;;;;;;;;;;357156;147;864806;-59
2021/12/12 04:18:45;;;;;;;20.35;10.63;;;;;;;;;;355627;148;864818;-59
2021/12/12 04:19:48;;;;;;;23.80;11.29;;;;;;;;;;356407;148;857413;-61
2021/12/12 04:20:49;;;;;;;27.81;11.11;;;;;;;;;;355024;148;866470;-61
2021/12/12 04:21:51;;;;;;;16.66;8.79;;;;;;;;;;355087;148;857302;-59
2021/12/12 04:22:52;;;;;;;21.81;10.51;;;;;;;;;;354679;148;859074;-59
2021/12/12 04:23:54;;;;;;;20.26;9.78;;;;;;;;;;355856;147;860074;-59
2021/12/12 04:24:56;;;;;;;19.05;10.47;;;;;;;;;;357004;147;864852;-59
2021/12/12 04:26:07;;;;;;;18.86;9.71;;;;;;;;;;353426;149;865187;-58
2021/12/12 04:27:09;;;;;;;17.79;10.13;;;;;;;;;;349967;151;857479;-59
2021/12/12 04:28:11;;;;;;;15.49;9.26;;;;;;;;;;350580;150;857410;-59
2021/12/12 04:29:17;;;;;;;19.61;9.17;;;;;;;;;;350248;150;856961;-59
2021/12/12 04:30:23;;;;;;;18.94;9.48;;;;;;;;;;349733;151;865913;-59
2021/12/12 04:31:24;;;;;;;19.52;9.30;;;;;;;;;;348517;150;859544;-59
2021/12/12 04:32:26;;;;;;;19.36;9.80;;;;;;;;;;351365;150;859265;-60
2021/12/12 04:33:27;;;;;;;17.70;9.87;;;;;;;;;;349931;150;864862;-60
2021/12/12 04:34:31;;;;;;;17.16;9.13;;;;;;;;;;351185;150;857262;-60
2021/12/12 04:35:32;;;;;;;18.24;9.63;;;;;;;;;;350873;150;862625;-60
2021/12/12 04:36:36;;;;;;;20.40;9.29;;;;;;;;;;349786;151;857317;-60
2021/12/12 04:37:38;;;;;;;15.71;9.32;;;;;;;;;;352249;150;867132;-58
2021/12/12 04:38:39;;;;;;;16.87;9.85;;;;;;;;;;350935;150;857190;-62
2021/12/12 04:39:42;;;;;;;18.61;9.26;;;;;;;;;;349803;150;857820;-60
2021/12/12 04:40:44;;;;;;;16.31;8.32;;;;;;;;;;347679;151;865004;-59
2021/12/12 04:41:46;;;;;;;18.72;9.73;;;;;;;;;;349004;154;857177;-60
2021/12/12 04:42:48;;;;;;;17.88;9.91;;;;;;;;;;350314;150;858628;-60
2021/12/12 04:43:49;;;;;;;24.03;8.97;;;;;;;;;;353172;150;857259;-60
2021/12/12 04:44:52;;;;;;;19.34;8.69;;;;;;;;;;353652;150;857197;-60
2021/12/12 04:46:04;;;;;;;21.29;9.63;;;;;;;;;;353206;150;858989;-60
2021/12/12 04:49:55;;;;;;;19.43;9.74;;;;;;;;;;351127;150;859722;-59
2021/12/12 04:51:11;;;;;;;22.93;10.04;;;;;;;;;;351893;150;859082;-62
2021/12/12 04:52:12;;;;;;;23.14;10.31;;;;;;;;;;352433;151;859625;-63
2021/12/12 04:53:16;;;;;;;21.44;10.15;;;;;;;;;;351602;150;857256;-62
2021/12/12 04:54:22;;;;;;;19.69;10.30;;;;;;;;;;351137;150;865697;-60
2021/12/12 04:55:26;;;;;;;19.86;10.67;;;;;;;;;;350803;151;859985;-61
2021/12/12 04:56:35;;;;;;;21.19;10.32;;;;;;;;;;350926;150;857258;-59
2021/12/12 04:57:45;;;;;;;31.61;11.07;;;;;;;;;;354049;150;857836;-60
2021/12/12 04:58:49;;;;;;;24.40;10.46;;;;;;;;;;349918;151;857195;-60
2021/12/12 04:59:51;;;;;;;21.26;10.65;;;;;;;;;;350810;150;857615;-59
2021/12/12 05:00:55;;;;;;;24.73;11.33;;;;;;;;;;350693;149;857331;-61
2021/12/12 05:02:08;;;;;;;24.94;12.02;;;;;;;;;;349358;151;857132;-60
2021/12/12 05:03:16;;;;;;;26.53;12.41;;;;;;;;;;349141;151;859141;-59
2021/12/12 05:04:20;;;;;;;19.57;11.09;;;;;;;;;;349598;150;859555;-60
2021/12/12 05:05:23;;;;;;;38.50;11.99;;;;;;;;;;349341;151;857716;-60
2021/12/12 05:06:29;;;;;;;24.03;11.36;;;;;;;;;;351092;150;858261;-58
2021/12/12 05:07:32;;;;;;;30.16;11.93;;;;;;;;;;350466;150;864787;-60
2021/12/12 05:08:53;;;;;;;21.71;11.45;;;;;;;;;;353914;150;858376;-62
2021/12/12 05:09:56;;;;;;;26.47;11.82;;;;;;;;;;349808;150;860444;-59
2021/12/12 05:11:00;;;;;;;22.38;11.81;;;;;;;;;;348486;150;858855;-61
2021/12/12 05:12:06;;;;;;;27.65;12.77;;;;;;;;;;350047;150;857267;-59
2021/12/12 05:13:19;;;;;;;35.27;11.38;;;;;;;;;;348845;154;857697;-62
2021/12/12 05:14:23;;;;;;;22.39;11.70;;;;;;;;;;351531;150;857547;-60
2021/12/12 05:15:26;;;;;;;26.42;12.15;;;;;;;;;;350015;150;857425;-58
2021/12/12 05:16:29;;;;;;;30.44;11.01;;;;;;;;;;349122;150;856405;-59
2021/12/12 05:17:33;;;;;;;19.95;8.91;;;;;;;;;;351374;150;857423;-58
2021/12/12 05:18:36;;;;;;;20.92;11.65;;;;;;;;;;350299;150;866162;-59
2021/12/12 05:19:39;;;;;;;26.49;11.83;;;;;;;;;;351030;150;857217;-58
2021/12/12 05:20:45;;;;;;;23.68;11.50;;;;;;;;;;349185;150;857198;-59
2021/12/12 05:21:48;;;;;;;22.30;10.12;;;;;;;;;;350401;150;859378;-60
2021/12/12 05:22:51;;;;;;;15.03;7.41;;;;;;;;;;350595;151;857586;-58
2021/12/12 05:23:54;;;;;;;17.69;9.67;;;;;;;;;;351134;151;857234;-59
2021/12/12 05:24:57;;;;;;;26.16;11.36;;;;;;;;;;350888;150;857186;-58
2021/12/12 05:26:00;;;;;;;19.80;10.89;;;;;;;;;;349367;150;857101;-59
2021/12/12 05:27:04;;;;;;;29.18;11.80;;;;;;;;;;353583;149;858138;-59
2021/12/12 05:28:05;;;;;;;26.04;11.09;;;;;;;;;;356561;147;857753;-60
2021/12/12 05:29:07;;;;;;;27.16;11.88;;;;;;;;;;355825;149;858690;-60
2021/12/12 05:30:11;;;;;;;27.57;11.99;;;;;;;;;;357898;148;865052;-58
2021/12/12 05:31:12;;;;;;;23.41;12.67;;;;;;;;;;355870;148;865305;-60
2021/12/12 05:32:14;;;;;;;25.61;12.16;;;;;;;;;;355857;148;867095;-57
2021/12/12 05:33:15;;;;;;;28.51;11.89;;;;;;;;;;354787;150;857586;-58
2021/12/12 05:34:17;;;;;;;19.17;11.75;;;;;;;;;;354022;148;862156;-58
2021/12/12 05:35:20;;;;;;;34.63;13.05;;;;;;;;;;357099;147;864750;-60
2021/12/12 05:36:21;;;;;;;31.41;13.38;;;;;;;;;;354486;148;857130;-60
2021/12/12 05:37:23;;;;;;;21.39;12.71;;;;;;;;;;355925;149;856267;-60
2021/12/12 05:38:25;;;;;;;40.67;12.36;;;;;;;;;;356449;147;857293;-58
2021/12/12 05:39:27;;;;;;;23.57;13.45;;;;;;;;;;357058;148;859086;-59
2021/12/12 05:40:29;;;;;;;31.93;13.93;;;;;;;;;;355372;147;857176;-59
2021/12/12 05:41:31;;;;;;;23.74;13.19;;;;;;;;;;359984;147;858817;-59
2021/12/12 05:42:32;;;;;;;26.06;12.06;;;;;;;;;;354688;148;861839;-61
2021/12/12 05:43:34;;;;;;;26.20;12.31;;;;;;;;;;355847;148;864797;-59
2021/12/12 05:44:36;;;;;;;33.61;13.23;;;;;;;;;;354522;149;857539;-58
2021/12/12 05:45:37;;;;;;;24.31;11.04;;;;;;;;;;354339;147;864821;-58
2021/12/12 05:46:39;;;;;;;32.28;13.66;;;;;;;;;;355041;147;864762;-59
2021/12/12 05:47:40;;;;;;;20.81;10.42;;;;;;;;;;356419;147;864928;-59
2021/12/12 05:48:43;;;;;;;26.24;13.14;;;;;;;;;;355199;147;864893;-58
2021/12/12 05:49:44;;;;;;;25.05;13.12;;;;;;;;;;356495;147;864970;-61
2021/12/12 05:50:46;;;;;;;29.21;13.45;;;;;;;;;;357833;147;857174;-59
2021/12/12 05:51:48;;;;;;;22.13;12.34;;;;;;;;;;356732;147;866635;-59
2021/12/12 05:52:54;;;;;;;28.04;13.06;;;;;;;;;;354997;147;865431;-59
2021/12/12 05:53:53;;;;;;;33.41;13.78;;;;;;;;;;354793;149;857403;-59
2021/12/12 05:54:54;;;;;;;25.55;11.30;;;;;;;;;;355834;150;857222;-59
2021/12/12 05:55:56;;;;;;;69.96;15.80;;;;;;;;;;355216;148;860118;-59
2021/12/12 05:57:00;;;;;;;34.16;14.10;;;;;;;;;;355946;148;866546;-62
2021/12/12 05:58:03;;;;;;;28.62;13.86;;;;;;;;;;356013;150;857419;-61
2021/12/12 05:59:04;;;;;;;38.06;13.72;;;;;;;;;;356864;147;857373;-60
2021/12/12 06:00:08;;;;;;;34.05;13.78;;;;;;;;;;356852;147;857312;-58
2021/12/12 06:01:10;;;;;;;28.38;13.24;;;;;;;;;;355291;149;857849;-59
2021/12/12 06:02:11;;;;;;;36.31;14.11;;;;;;;;;;353767;147;865453;-58
2021/12/12 06:03:14;;;;;;;24.94;13.62;;;;;;;;;;356555;147;865142;-62
2021/12/12 06:04:17;;;;;;;35.59;14.72;;;;;;;;;;354558;149;857253;-59
2021/12/12 06:05:18;;;;;;;23.93;13.11;;;;;;;;;;357101;147;858547;-60
2021/12/12 06:06:22;;;;;;;33.26;14.58;;;;;;;;;;355677;147;863906;-59
2021/12/12 06:07:24;;;;;;;24.56;13.14;;;;;;;;;;356618;147;856910;-58
2021/12/12 06:08:26;;;;;;;33.37;13.09;;;;;;;;;;355939;147;856750;-59
2021/12/12 06:09:27;;;;;;;34.20;13.42;;;;;;;;;;357045;148;867068;-59
2021/12/12 06:10:30;;;;;;;27.95;13.05;;;;;;;;;;354820;147;860181;-59
2021/12/12 06:11:32;;;;;;;25.86;13.15;;;;;;;;;;357027;147;858488;-59
2021/12/12 06:12:33;;;;;;;34.95;13.71;;;;;;;;;;354886;147;857246;-57
2021/12/12 06:13:35;;;;;;;52.09;15.98;;;;;;;;;;354049;148;857304;-57
2021/12/12 06:14:37;;;;;;;28.04;12.79;;;;;;;;;;357532;147;864877;-57
2021/12/12 06:15:39;;;;;;;29.53;12.99;;;;;;;;;;356167;148;857221;-58
2021/12/12 06:16:40;;;;;;;29.16;12.90;;;;;;;;;;355552;147;857348;-64
2021/12/12 06:17:42;;;;;;;28.26;14.11;;;;;;;;;;356303;148;865421;-59
2021/12/12 06:18:44;;;;;;;30.71;13.99;;;;;;;;;;356841;149;865004;-62
2021/12/12 06:19:45;;;;;;;34.51;14.73;;;;;;;;;;343510;153;864967;-61
2021/12/12 06:20:48;;;;;;;21.53;11.83;;;;;;;;;;355350;147;865006;-59
2021/12/12 06:21:51;;;;;;;28.49;14.91;;;;;;;;;;357034;148;857371;-62
2021/12/12 06:22:53;;;;;;;27.42;10.55;;;;;;;;;;348453;152;857395;-61
2021/12/12 06:23:55;;;;;;;35.40;15.01;;;;;;;;;;349342;150;857303;-57
2021/12/12 06:24:56;;;;;;;22.08;11.46;;;;;;;;;;355696;147;859199;-58
2021/12/12 06:25:58;;;;;;;27.05;14.56;;;;;;;;;;355513;150;866069;-59
2021/12/12 06:27:04;;;;;;;28.30;14.67;;;;;;;;;;356313;148;862505;-56
2021/12/12 06:28:09;;;;;;;26.31;14.66;;;;;;;;;;355205;148;858387;-56
2021/12/12 06:29:11;;;;;;;39.81;16.17;;;;;;;;;;358242;148;857767;-56
2021/12/12 06:30:14;;;;;;;39.97;15.92;;;;;;;;;;354246;150;857254;-56
2021/12/12 06:31:16;;;;;;;42.67;16.09;;;;;;;;;;354712;147;859196;-57
2021/12/12 06:32:18;;;;;;;37.57;15.36;;;;;;;;;;356532;149;858047;-57
2021/12/12 06:33:19;;;;;;;43.16;16.11;;;;;;;;;;356713;147;864947;-55